sensor_id;sensor_type;location;lat;lon;timestamp;pressure;altitude;pressure_sealevel;temperature;humidity
9750;BME280;4914;43.218;27.908;2022-08-06T00:00:53;100399.38;;;24.36;100.00
9750;BME280;4914;43.218;27.908;2022-08-06T00:03:21;100393.97;;;24.22;100.00
9750;BME280;4914;43.218;27.908;2022-08-06T00:05:48;100388.97;;;24.19;100.00
9750;BME280;4914;43.218;27.908;2022-08-06T00:08:15;100391.25;;;24.16;100.00
9750;BME280;4914;43.218;27.908;2022-08-06T00:10:42;100393.34;;;24.20;100.00
9750;BME280;4914;43.218;27.908;2022-08-06T00:13:09;100392.31;;;24.21;100.00
9750;BME280;4914;43.218;27.908;2022-08-06T00:15:36;100388.13;;;24.19;100.00
9750;BME280;4914;43.218;27.908;2022-08-06T00:18:03;100385.63;;;24.17;100.00
9750;BME280;4914;43.218;27.908;2022-08-06T00:20:31;100386.25;;;24.19;100.00
9750;BME280;4914;43.218;27.908;2022-08-06T00:22:58;100388.53;;;24.22;100.00
9750;BME280;4914;43.218;27.908;2022-08-06T00:25:25;100390.00;;;24.18;100.00
9750;BME280;4914;43.218;27.908;2022-08-06T00:27:52;100381.03;;;24.11;100.00
9750;BME280;4914;43.218;27.908;2022-08-06T00:30:19;100380.59;;;24.14;100.00
9750;BME280;4914;43.218;27.908;2022-08-06T00:32:46;100380.19;;;24.11;100.00
9750;BME280;4914;43.218;27.908;2022-08-06T00:35:12;100380.59;;;24.14;100.00
9750;BME280;4914;43.218;27.908;2022-08-06T00:37:41;100377.88;;;24.08;100.00
9750;BME280;4914;43.218;27.908;2022-08-06T00:40:08;100386.47;;;23.98;100.00
9750;BME280;4914;43.218;27.908;2022-08-06T00:42:36;100387.31;;;23.92;100.00
9750;BME280;4914;43.218;27.908;2022-08-06T00:45:03;100382.31;;;23.89;100.00
9750;BME280;4914;43.218;27.908;2022-08-06T00:47:30;100378.53;;;23.90;100.00
9750;BME280;4914;43.218;27.908;2022-08-06T00:49:57;100378.56;;;23.83;100.00
9750;BME280;4914;43.218;27.908;2022-08-06T00:52:24;100376.66;;;23.90;100.00
9750;BME280;4914;43.218;27.908;2022-08-06T00:54:52;100379.38;;;23.84;100.00
9750;BME280;4914;43.218;27.908;2022-08-06T00:57:19;100389.22;;;23.72;100.00
9750;BME280;4914;43.218;27.908;2022-08-06T00:59:45;100380.44;;;23.70;100.00
9750;BME280;4914;43.218;27.908;2022-08-06T01:02:12;100381.91;;;23.66;100.00
9750;BME280;4914;43.218;27.908;2022-08-06T01:04:39;100392.97;;;23.58;100.00
9750;BME280;4914;43.218;27.908;2022-08-06T01:07:06;100384.00;;;23.64;100.00
9750;BME280;4914;43.218;27.908;2022-08-06T01:09:33;100383.38;;;23.62;100.00
9750;BME280;4914;43.218;27.908;2022-08-06T01:12:01;100378.78;;;23.56;100.00
9750;BME280;4914;43.218;27.908;2022-08-06T01:14:28;100386.91;;;23.56;100.00
9750;BME280;4914;43.218;27.908;2022-08-06T01:17:02;100381.25;;;23.51;100.00
9750;BME280;4914;43.218;27.908;2022-08-06T01:19:48;100380.44;;;23.50;100.00
9750;BME280;4914;43.218;27.908;2022-08-06T01:22:39;100390.66;;;23.48;100.00
9750;BME280;4914;43.218;27.908;2022-08-06T01:25:42;100378.09;;;23.40;100.00
9750;BME280;4914;43.218;27.908;2022-08-06T01:28:16;100386.66;;;23.37;100.00
9750;BME280;4914;43.218;27.908;2022-08-06T01:30:50;100379.97;;;23.33;100.00
9750;BME280;4914;43.218;27.908;2022-08-06T01:33:24;100373.53;;;23.34;100.00
9750;BME280;4914;43.218;27.908;2022-08-06T01:35:55;100381.06;;;23.45;100.00
9750;BME280;4914;43.218;27.908;2022-08-06T01:38:28;100371.88;;;23.40;100.00
9750;BME280;4914;43.218;27.908;2022-08-06T01:40:57;100374.34;;;23.41;100.00
9750;BME280;4914;43.218;27.908;2022-08-06T01:43:28;100380.41;;;23.30;100.00
9750;BME280;4914;43.218;27.908;2022-08-06T01:45:58;100380.16;;;23.19;100.00
9750;BME280;4914;43.218;27.908;2022-08-06T01:48:27;100366.81;;;23.11;100.00
9750;BME280;4914;43.218;27.908;2022-08-06T01:50:57;100363.94;;;23.25;100.00
9750;BME280;4914;43.218;27.908;2022-08-06T01:53:29;100367.69;;;23.31;100.00
9750;BME280;4914;43.218;27.908;2022-08-06T01:55:59;100372.25;;;23.17;100.00
9750;BME280;4914;43.218;27.908;2022-08-06T01:58:30;100369.34;;;23.19;100.00
9750;BME280;4914;43.218;27.908;2022-08-06T02:01:02;100370.16;;;23.13;100.00
9750;BME280;4914;43.218;27.908;2022-08-06T02:03:33;100363.91;;;23.19;100.00
9750;BME280;4914;43.218;27.908;2022-08-06T02:06:03;100365.97;;;23.17;100.00
9750;BME280;4914;43.218;27.908;2022-08-06T02:08:33;100367.03;;;23.16;100.00
9750;BME280;4914;43.218;27.908;2022-08-06T02:11:02;100364.28;;;22.96;100.00
9750;BME280;4914;43.218;27.908;2022-08-06T02:13:32;100360.53;;;22.90;100.00
9750;BME280;4914;43.218;27.908;2022-08-06T02:16:01;100361.94;;;22.73;100.00
9750;BME280;4914;43.218;27.908;2022-08-06T02:18:30;100362.50;;;22.69;100.00
9750;BME280;4914;43.218;27.908;2022-08-06T02:21:00;100362.28;;;22.64;100.00
9750;BME280;4914;43.218;27.908;2022-08-06T02:23:29;100361.66;;;22.61;100.00
9750;BME280;4914;43.218;27.908;2022-08-06T02:25:57;100362.31;;;22.70;100.00
9750;BME280;4914;43.218;27.908;2022-08-06T02:28:26;100367.53;;;22.72;100.00
9750;BME280;4914;43.218;27.908;2022-08-06T02:30:57;100363.38;;;22.76;100.00
9750;BME280;4914;43.218;27.908;2022-08-06T02:33:25;100361.72;;;22.75;100.00
9750;BME280;4914;43.218;27.908;2022-08-06T02:35:54;100361.69;;;22.68;100.00
9750;BME280;4914;43.218;27.908;2022-08-06T02:38:33;100365.38;;;22.60;100.00
9750;BME280;4914;43.218;27.908;2022-08-06T02:41:08;100369.53;;;22.56;100.00
9750;BME280;4914;43.218;27.908;2022-08-06T02:43:39;100368.59;;;22.71;100.00
9750;BME280;4914;43.218;27.908;2022-08-06T02:46:11;100365.00;;;22.64;100.00
9750;BME280;4914;43.218;27.908;2022-08-06T02:48:43;100363.88;;;22.51;100.00
9750;BME280;4914;43.218;27.908;2022-08-06T02:51:15;100370.19;;;22.58;100.00
9750;BME280;4914;43.218;27.908;2022-08-06T02:53:54;100375.38;;;22.60;100.00
9750;BME280;4914;43.218;27.908;2022-08-06T02:56:22;100372.25;;;22.56;100.00
9750;BME280;4914;43.218;27.908;2022-08-06T02:58:52;100382.41;;;22.48;100.00
9750;BME280;4914;43.218;27.908;2022-08-06T03:01:25;100377.44;;;22.51;100.00
9750;BME280;4914;43.218;27.908;2022-08-06T03:03:55;100381.16;;;22.50;100.00
9750;BME280;4914;43.218;27.908;2022-08-06T03:06:25;100379.28;;;22.44;100.00
9750;BME280;4914;43.218;27.908;2022-08-06T03:08:54;100379.28;;;22.44;100.00
9750;BME280;4914;43.218;27.908;2022-08-06T03:11:23;100391.50;;;22.40;100.00
9750;BME280;4914;43.218;27.908;2022-08-06T03:13:51;100381.53;;;22.41;100.00
9750;BME280;4914;43.218;27.908;2022-08-06T03:16:19;100388.81;;;22.40;100.00
9750;BME280;4914;43.218;27.908;2022-08-06T03:18:48;100381.09;;;22.37;100.00
9750;BME280;4914;43.218;27.908;2022-08-06T03:21:16;100386.19;;;22.53;100.00
9750;BME280;4914;43.218;27.908;2022-08-06T03:23:46;100389.13;;;22.58;100.00
9750;BME280;4914;43.218;27.908;2022-08-06T03:26:15;100386.69;;;22.70;100.00
9750;BME280;4914;43.218;27.908;2022-08-06T03:28:42;100386.00;;;22.61;100.00
9750;BME280;4914;43.218;27.908;2022-08-06T03:31:11;100382.66;;;22.59;100.00
9750;BME280;4914;43.218;27.908;2022-08-06T03:33:38;100387.84;;;22.54;100.00
9750;BME280;4914;43.218;27.908;2022-08-06T03:36:09;100391.50;;;22.75;100.00
9750;BME280;4914;43.218;27.908;2022-08-06T03:38:39;100388.38;;;22.71;100.00
9750;BME280;4914;43.218;27.908;2022-08-06T03:41:07;100386.44;;;22.65;100.00
9750;BME280;4914;43.218;27.908;2022-08-06T03:43:35;100383.59;;;22.73;100.00
9750;BME280;4914;43.218;27.908;2022-08-06T03:46:05;100386.91;;;22.75;100.00
9750;BME280;4914;43.218;27.908;2022-08-06T03:48:36;100386.84;;;22.69;100.00
9750;BME280;4914;43.218;27.908;2022-08-06T03:51:08;100387.91;;;22.68;100.00
9750;BME280;4914;43.218;27.908;2022-08-06T03:53:38;100392.59;;;22.87;100.00
9750;BME280;4914;43.218;27.908;2022-08-06T03:56:07;100388.81;;;22.81;100.00
9750;BME280;4914;43.218;27.908;2022-08-06T03:58:37;100385.53;;;22.99;100.00
9750;BME280;4914;43.218;27.908;2022-08-06T04:01:07;100391.38;;;22.96;100.00
9750;BME280;4914;43.218;27.908;2022-08-06T04:03:36;100396.75;;;22.83;100.00
9750;BME280;4914;43.218;27.908;2022-08-06T04:06:04;100391.34;;;22.83;100.00
9750;BME280;4914;43.218;27.908;2022-08-06T04:08:37;100396.38;;;22.92;100.00
9750;BME280;4914;43.218;27.908;2022-08-06T04:11:05;100386.53;;;22.85;100.00
9750;BME280;4914;43.218;27.908;2022-08-06T04:13:33;100392.19;;;22.90;100.00
9750;BME280;4914;43.218;27.908;2022-08-06T04:16:01;100388.44;;;22.91;100.00
9750;BME280;4914;43.218;27.908;2022-08-06T04:18:30;100387.63;;;22.97;100.00
9750;BME280;4914;43.218;27.908;2022-08-06T04:21:03;100388.06;;;23.00;100.00
9750;BME280;4914;43.218;27.908;2022-08-06T04:23:30;100388.91;;;23.14;100.00
9750;BME280;4914;43.218;27.908;2022-08-06T04:26:02;100385.78;;;23.17;100.00
9750;BME280;4914;43.218;27.908;2022-08-06T04:28:30;100392.06;;;23.37;100.00
9750;BME280;4914;43.218;27.908;2022-08-06T04:30:58;100386.69;;;23.51;100.00
9750;BME280;4914;43.218;27.908;2022-08-06T04:33:26;100382.94;;;23.52;100.00
9750;BME280;4914;43.218;27.908;2022-08-06T04:35:54;100392.53;;;23.48;100.00
9750;BME280;4914;43.218;27.908;2022-08-06T04:38:22;100392.09;;;23.51;100.00
9750;BME280;4914;43.218;27.908;2022-08-06T04:40:50;100394.63;;;23.72;100.00
9750;BME280;4914;43.218;27.908;2022-08-06T04:43:19;100390.25;;;23.64;100.00
9750;BME280;4914;43.218;27.908;2022-08-06T04:45:48;100391.28;;;23.70;100.00
9750;BME280;4914;43.218;27.908;2022-08-06T04:48:16;100396.72;;;23.76;100.00
9750;BME280;4914;43.218;27.908;2022-08-06T04:50:43;100396.91;;;23.81;100.00
9750;BME280;4914;43.218;27.908;2022-08-06T04:53:11;100401.94;;;23.78;100.00
9750;BME280;4914;43.218;27.908;2022-08-06T04:55:38;100400.06;;;23.78;100.00
9750;BME280;4914;43.218;27.908;2022-08-06T04:58:08;100405.66;;;24.03;100.00
9750;BME280;4914;43.218;27.908;2022-08-06T05:00:38;100402.53;;;24.06;100.00
9750;BME280;4914;43.218;27.908;2022-08-06T05:03:06;100399.38;;;24.09;100.00
9750;BME280;4914;43.218;27.908;2022-08-06T05:05:37;100406.28;;;24.05;100.00
9750;BME280;4914;43.218;27.908;2022-08-06T05:08:06;100405.25;;;24.06;100.00
9750;BME280;4914;43.218;27.908;2022-08-06T05:10:39;100404.16;;;24.40;100.00
9750;BME280;4914;43.218;27.908;2022-08-06T05:13:10;100402.00;;;24.62;100.00
9750;BME280;4914;43.218;27.908;2022-08-06T05:15:42;100400.09;;;24.69;100.00
9750;BME280;4914;43.218;27.908;2022-08-06T05:18:13;100404.88;;;24.73;100.00
9750;BME280;4914;43.218;27.908;2022-08-06T05:20:47;100401.50;;;24.78;100.00
9750;BME280;4914;43.218;27.908;2022-08-06T05:23:18;100403.34;;;24.97;100.00
9750;BME280;4914;43.218;27.908;2022-08-06T05:25:45;100404.56;;;25.01;100.00
9750;BME280;4914;43.218;27.908;2022-08-06T05:28:12;100407.47;;;25.06;100.00
9750;BME280;4914;43.218;27.908;2022-08-06T05:30:45;100405.97;;;25.10;100.00
9750;BME280;4914;43.218;27.908;2022-08-06T05:33:21;100408.88;;;25.15;100.00
9750;BME280;4914;43.218;27.908;2022-08-06T05:35:48;100406.97;;;25.23;100.00
9750;BME280;4914;43.218;27.908;2022-08-06T05:38:15;100405.22;;;25.28;100.00
9750;BME280;4914;43.218;27.908;2022-08-06T05:40:42;100406.03;;;25.35;100.00
9750;BME280;4914;43.218;27.908;2022-08-06T05:43:09;100415.75;;;25.49;100.00
9750;BME280;4914;43.218;27.908;2022-08-06T05:45:38;100413.13;;;25.68;100.00
9750;BME280;4914;43.218;27.908;2022-08-06T05:48:09;100416.16;;;25.84;100.00
9750;BME280;4914;43.218;27.908;2022-08-06T05:50:43;100418.59;;;26.11;100.00
9750;BME280;4914;43.218;27.908;2022-08-06T05:53:15;100416.56;;;26.31;100.00
9750;BME280;4914;43.218;27.908;2022-08-06T05:55:50;100421.09;;;26.37;100.00
9750;BME280;4914;43.218;27.908;2022-08-06T05:58:22;100417.63;;;26.48;100.00
9750;BME280;4914;43.218;27.908;2022-08-06T06:00:50;100412.78;;;26.50;100.00
9750;BME280;4914;43.218;27.908;2022-08-06T06:03:20;100427.16;;;26.57;100.00
9750;BME280;4914;43.218;27.908;2022-08-06T06:05:49;100415.34;;;26.63;100.00
9750;BME280;4914;43.218;27.908;2022-08-06T06:08:17;100410.66;;;26.70;100.00
9750;BME280;4914;43.218;27.908;2022-08-06T06:10:45;100403.84;;;26.79;100.00
9750;BME280;4914;43.218;27.908;2022-08-06T06:13:14;100404.59;;;26.86;100.00
9750;BME280;4914;43.218;27.908;2022-08-06T06:15:44;100400.63;;;27.01;100.00
9750;BME280;4914;43.218;27.908;2022-08-06T06:18:25;100398.81;;;27.13;100.00
9750;BME280;4914;43.218;27.908;2022-08-06T06:20:57;100399.72;;;27.07;100.00
9750;BME280;4914;43.218;27.908;2022-08-06T06:23:30;100401.31;;;27.14;100.00
9750;BME280;4914;43.218;27.908;2022-08-06T06:26:03;100395.16;;;27.19;100.00
9750;BME280;4914;43.218;27.908;2022-08-06T06:28:42;100401.19;;;27.21;100.00
9750;BME280;4914;43.218;27.908;2022-08-06T06:31:22;100394.53;;;27.17;100.00
9750;BME280;4914;43.218;27.908;2022-08-06T06:34:00;100396.63;;;27.03;100.00
9750;BME280;4914;43.218;27.908;2022-08-06T06:36:34;100386.56;;;27.04;100.00
9750;BME280;4914;43.218;27.908;2022-08-06T06:39:07;100389.56;;;27.14;100.00
9750;BME280;4914;43.218;27.908;2022-08-06T06:41:41;100378.94;;;27.24;100.00
9750;BME280;4914;43.218;27.908;2022-08-06T06:44:16;100388.72;;;27.43;100.00
9750;BME280;4914;43.218;27.908;2022-08-06T06:46:50;100392.78;;;27.52;100.00
9750;BME280;4914;43.218;27.908;2022-08-06T06:49:23;100388.22;;;27.46;100.00
9750;BME280;4914;43.218;27.908;2022-08-06T06:51:54;100397.84;;;27.49;100.00
9750;BME280;4914;43.218;27.908;2022-08-06T06:54:25;100400.97;;;27.52;100.00
9750;BME280;4914;43.218;27.908;2022-08-06T06:56:54;100394.75;;;27.45;100.00
9750;BME280;4914;43.218;27.908;2022-08-06T06:59:24;100394.41;;;27.53;100.00
9750;BME280;4914;43.218;27.908;2022-08-06T07:01:56;100399.88;;;27.53;100.00
9750;BME280;4914;43.218;27.908;2022-08-06T07:04:27;100405.00;;;27.61;100.00
9750;BME280;4914;43.218;27.908;2022-08-06T07:06:57;100403.69;;;27.64;100.00
9750;BME280;4914;43.218;27.908;2022-08-06T07:09:27;100401.41;;;27.49;100.00
9750;BME280;4914;43.218;27.908;2022-08-06T07:11:56;100392.78;;;27.52;100.00
9750;BME280;4914;43.218;27.908;2022-08-06T07:14:24;100399.22;;;27.69;100.00
9750;BME280;4914;43.218;27.908;2022-08-06T07:16:53;100398.50;;;27.74;100.00
9750;BME280;4914;43.218;27.908;2022-08-06T07:19:24;100396.63;;;27.86;100.00
9750;BME280;4914;43.218;27.908;2022-08-06T07:21:52;100397.59;;;28.15;100.00
9750;BME280;4914;43.218;27.908;2022-08-06T07:24:22;100393.66;;;28.23;100.00
9750;BME280;4914;43.218;27.908;2022-08-06T07:26:50;100383.66;;;28.40;100.00
9750;BME280;4914;43.218;27.908;2022-08-06T07:29:19;100388.22;;;28.34;100.00
9750;BME280;4914;43.218;27.908;2022-08-06T07:31:47;100401.31;;;28.60;100.00
9750;BME280;4914;43.218;27.908;2022-08-06T07:34:15;100392.44;;;28.53;100.00
9750;BME280;4914;43.218;27.908;2022-08-06T07:36:47;100383.47;;;28.70;100.00
9750;BME280;4914;43.218;27.908;2022-08-06T07:39:20;100390.38;;;28.60;100.00
9750;BME280;4914;43.218;27.908;2022-08-06T07:41:49;100378.84;;;28.70;100.00
9750;BME280;4914;43.218;27.908;2022-08-06T07:44:20;100388.69;;;28.83;98.97
9750;BME280;4914;43.218;27.908;2022-08-06T07:46:48;100392.88;;;29.02;100.00
9750;BME280;4914;43.218;27.908;2022-08-06T07:49:21;100388.88;;;29.21;100.00
9750;BME280;4914;43.218;27.908;2022-08-06T07:51:52;100385.97;;;29.11;100.00
9750;BME280;4914;43.218;27.908;2022-08-06T07:54:22;100382.94;;;29.24;100.00
9750;BME280;4914;43.218;27.908;2022-08-06T07:56:51;100388.44;;;29.41;100.00
9750;BME280;4914;43.218;27.908;2022-08-06T07:59:19;100385.31;;;29.49;100.00
9750;BME280;4914;43.218;27.908;2022-08-06T08:01:47;100396.16;;;29.44;100.00
9750;BME280;4914;43.218;27.908;2022-08-06T08:04:14;100393.97;;;29.29;100.00
9750;BME280;4914;43.218;27.908;2022-08-06T08:07:01;100390.34;;;29.40;100.00
9750;BME280;4914;43.218;27.908;2022-08-06T08:09:30;100383.22;;;29.56;98.49
9750;BME280;4914;43.218;27.908;2022-08-06T08:11:58;100386.47;;;29.53;100.00
9750;BME280;4914;43.218;27.908;2022-08-06T08:14:25;100388.50;;;29.29;100.00
9750;BME280;4914;43.218;27.908;2022-08-06T08:16:53;100396.81;;;29.34;100.00
9750;BME280;4914;43.218;27.908;2022-08-06T08:19:22;100385.38;;;29.37;100.00
9750;BME280;4914;43.218;27.908;2022-08-06T08:21:49;100389.53;;;29.57;99.30
9750;BME280;4914;43.218;27.908;2022-08-06T08:24:19;100396.25;;;29.49;94.51
9750;BME280;4914;43.218;27.908;2022-08-06T08:26:45;100394.59;;;29.65;87.84
9750;BME280;4914;43.218;27.908;2022-08-06T08:29:12;100388.38;;;29.53;90.32
9750;BME280;4914;43.218;27.908;2022-08-06T08:31:39;100397.16;;;29.26;96.30
9750;BME280;4914;43.218;27.908;2022-08-06T08:34:06;100396.19;;;29.16;85.82
9750;BME280;4914;43.218;27.908;2022-08-06T08:36:33;100395.34;;;29.15;86.85
9750;BME280;4914;43.218;27.908;2022-08-06T08:39:00;100408.25;;;29.31;82.07
9750;BME280;4914;43.218;27.908;2022-08-06T08:41:31;100396.41;;;29.14;82.32
9750;BME280;4914;43.218;27.908;2022-08-06T08:44:03;100396.28;;;29.21;91.13
9750;BME280;4914;43.218;27.908;2022-08-06T08:46:33;100404.44;;;29.32;90.15
9750;BME280;4914;43.218;27.908;2022-08-06T08:49:03;100395.16;;;29.50;89.40
9750;BME280;4914;43.218;27.908;2022-08-06T08:51:31;100400.56;;;29.62;91.74
9750;BME280;4914;43.218;27.908;2022-08-06T08:53:59;100404.91;;;29.91;93.21
9750;BME280;4914;43.218;27.908;2022-08-06T08:56:27;100409.69;;;30.17;88.43
9750;BME280;4914;43.218;27.908;2022-08-06T08:58:55;100408.91;;;30.39;85.97
9750;BME280;4914;43.218;27.908;2022-08-06T09:01:22;100397.28;;;30.48;85.27
9750;BME280;4914;43.218;27.908;2022-08-06T09:03:50;100412.78;;;30.21;80.48
9750;BME280;4914;43.218;27.908;2022-08-06T09:06:17;100408.97;;;29.88;85.48
9750;BME280;4914;43.218;27.908;2022-08-06T09:08:45;100405.75;;;30.90;82.76
9750;BME280;4914;43.218;27.908;2022-08-06T09:11:13;100403.94;;;31.81;71.26
9750;BME280;4914;43.218;27.908;2022-08-06T09:13:40;100409.44;;;32.13;67.80
9750;BME280;4914;43.218;27.908;2022-08-06T09:16:09;100405.63;;;31.87;70.03
9750;BME280;4914;43.218;27.908;2022-08-06T09:18:35;100402.75;;;32.09;68.06
9750;BME280;4914;43.218;27.908;2022-08-06T09:21:02;100409.66;;;31.48;69.37
9750;BME280;4914;43.218;27.908;2022-08-06T09:23:30;100411.38;;;31.27;75.30
9750;BME280;4914;43.218;27.908;2022-08-06T09:25:57;100406.59;;;31.71;73.78
9750;BME280;4914;43.218;27.908;2022-08-06T09:28:32;100420.53;;;32.91;63.86
9750;BME280;4914;43.218;27.908;2022-08-06T09:31:04;100414.81;;;33.02;65.75
9750;BME280;4914;43.218;27.908;2022-08-06T09:33:34;100404.50;;;33.80;62.12
9750;BME280;4914;43.218;27.908;2022-08-06T09:36:03;100408.25;;;34.45;59.43
9750;BME280;4914;43.218;27.908;2022-08-06T09:38:30;100397.47;;;35.57;55.95
9750;BME280;4914;43.218;27.908;2022-08-06T09:41:07;100410.47;;;35.07;55.36
9750;BME280;4914;43.218;27.908;2022-08-06T09:43:36;100400.66;;;35.74;53.13
9750;BME280;4914;43.218;27.908;2022-08-06T09:46:03;100411.28;;;35.18;55.12
9750;BME280;4914;43.218;27.908;2022-08-06T09:48:32;100394.84;;;33.88;58.62
9750;BME280;4914;43.218;27.908;2022-08-06T09:50:59;100415.00;;;32.75;67.18
9750;BME280;4914;43.218;27.908;2022-08-06T09:53:26;100394.25;;;32.58;68.67
9750;BME280;4914;43.218;27.908;2022-08-06T09:55:55;100401.81;;;32.30;71.29
9750;BME280;4914;43.218;27.908;2022-08-06T09:58:31;100409.91;;;31.41;78.00
9750;BME280;4914;43.218;27.908;2022-08-06T10:01:11;100423.13;;;30.74;82.81
9750;BME280;4914;43.218;27.908;2022-08-06T10:03:40;100434.06;;;29.97;94.78
9750;BME280;4914;43.218;27.908;2022-08-06T10:06:09;100418.56;;;29.58;100.00
9750;BME280;4914;43.218;27.908;2022-08-06T10:08:37;100418.38;;;29.48;100.00
9750;BME280;4914;43.218;27.908;2022-08-06T10:11:05;100417.50;;;30.25;100.00
9750;BME280;4914;43.218;27.908;2022-08-06T10:13:33;100422.31;;;31.00;94.92
9750;BME280;4914;43.218;27.908;2022-08-06T10:16:13;100411.84;;;31.19;94.44
9750;BME280;4914;43.218;27.908;2022-08-06T10:18:43;100424.25;;;31.22;91.39
9750;BME280;4914;43.218;27.908;2022-08-06T10:21:14;100403.47;;;31.89;86.00
9750;BME280;4914;43.218;27.908;2022-08-06T10:23:44;100416.97;;;32.38;84.76
9750;BME280;4914;43.218;27.908;2022-08-06T10:26:13;100428.03;;;32.48;84.74
9750;BME280;4914;43.218;27.908;2022-08-06T10:28:41;100416.50;;;32.51;84.70
9750;BME280;4914;43.218;27.908;2022-08-06T10:31:12;100425.41;;;31.84;86.17
9750;BME280;4914;43.218;27.908;2022-08-06T10:33:43;100436.50;;;30.92;92.55
9750;BME280;4914;43.218;27.908;2022-08-06T10:36:13;100427.59;;;31.87;87.29
9750;BME280;4914;43.218;27.908;2022-08-06T10:38:44;100428.03;;;33.10;75.82
9750;BME280;4914;43.218;27.908;2022-08-06T10:41:12;100415.47;;;33.50;71.02
9750;BME280;4914;43.218;27.908;2022-08-06T10:43:40;100419.50;;;34.69;62.10
9750;BME280;4914;43.218;27.908;2022-08-06T10:46:09;100420.97;;;35.10;58.92
9750;BME280;4914;43.218;27.908;2022-08-06T10:48:40;100421.31;;;36.39;54.64
9750;BME280;4914;43.218;27.908;2022-08-06T10:51:09;100415.13;;;36.47;52.76
9750;BME280;4914;43.218;27.908;2022-08-06T10:53:38;100414.88;;;36.73;52.63
9750;BME280;4914;43.218;27.908;2022-08-06T10:56:07;100402.22;;;36.85;53.07
9750;BME280;4914;43.218;27.908;2022-08-06T10:58:35;100406.44;;;36.35;54.42
9750;BME280;4914;43.218;27.908;2022-08-06T11:01:05;100420.41;;;35.08;59.94
9750;BME280;4914;43.218;27.908;2022-08-06T11:03:44;100413.81;;;33.23;71.91
9750;BME280;4914;43.218;27.908;2022-08-06T11:06:36;100397.88;;;32.63;79.07
9750;BME280;4914;43.218;27.908;2022-08-06T11:09:19;100403.38;;;32.63;80.26
9750;BME280;4914;43.218;27.908;2022-08-06T11:12:02;100406.72;;;31.54;87.67
9750;BME280;4914;43.218;27.908;2022-08-06T11:14:34;100418.31;;;30.86;96.64
9750;BME280;4914;43.218;27.908;2022-08-06T11:17:02;100421.50;;;30.56;100.00
9750;BME280;4914;43.218;27.908;2022-08-06T11:19:40;100412.00;;;30.25;100.00
9750;BME280;4914;43.218;27.908;2022-08-06T11:22:33;100423.22;;;30.07;100.00
9750;BME280;4914;43.218;27.908;2022-08-06T11:25:00;100416.44;;;29.93;100.00
9750;BME280;4914;43.218;27.908;2022-08-06T11:27:57;100416.38;;;30.26;100.00
9750;BME280;4914;43.218;27.908;2022-08-06T11:30:36;100418.47;;;29.69;100.00
9750;BME280;4914;43.218;27.908;2022-08-06T11:33:04;100423.72;;;29.71;100.00
9750;BME280;4914;43.218;27.908;2022-08-06T11:35:44;100424.19;;;29.51;92.86
9750;BME280;4914;43.218;27.908;2022-08-06T11:41:21;100430.34;;;29.58;100.00
9750;BME280;4914;43.218;27.908;2022-08-06T11:44:04;100419.25;;;29.81;100.00
9750;BME280;4914;43.218;27.908;2022-08-06T11:46:32;100422.50;;;30.12;100.00
9750;BME280;4914;43.218;27.908;2022-08-06T11:49:20;100418.41;;;30.14;94.00
9750;BME280;4914;43.218;27.908;2022-08-06T11:51:52;100423.75;;;30.43;96.79
9750;BME280;4914;43.218;27.908;2022-08-06T11:54:22;100416.44;;;31.13;89.70
9750;BME280;4914;43.218;27.908;2022-08-06T12:00:14;100408.41;;;30.85;86.04
9750;BME280;4914;43.218;27.908;2022-08-06T12:02:57;100412.25;;;30.84;82.38
9750;BME280;4914;43.218;27.908;2022-08-06T12:05:45;100406.78;;;30.07;90.09
9750;BME280;4914;43.218;27.908;2022-08-06T12:08:21;100401.22;;;30.19;92.14
9750;BME280;4914;43.218;27.908;2022-08-06T12:13:57;100388.41;;;30.63;95.30
9750;BME280;4914;43.218;27.908;2022-08-06T12:16:29;100384.72;;;30.14;98.57
9750;BME280;4914;43.218;27.908;2022-08-06T12:18:56;100395.66;;;30.14;95.83
9750;BME280;4914;43.218;27.908;2022-08-06T12:21:23;100395.03;;;30.67;90.11
9750;BME280;4914;43.218;27.908;2022-08-06T12:23:51;100385.31;;;30.54;91.26
9750;BME280;4914;43.218;27.908;2022-08-06T12:26:18;100384.97;;;29.79;97.78
9750;BME280;4914;43.218;27.908;2022-08-06T12:28:46;100381.41;;;29.62;100.00
9750;BME280;4914;43.218;27.908;2022-08-06T12:31:27;100388.03;;;29.66;100.00
9750;BME280;4914;43.218;27.908;2022-08-06T12:33:54;100371.94;;;29.86;100.00
9750;BME280;4914;43.218;27.908;2022-08-06T12:36:25;100384.88;;;29.74;97.76
9750;BME280;4914;43.218;27.908;2022-08-06T12:38:54;100372.66;;;29.31;100.00
9750;BME280;4914;43.218;27.908;2022-08-06T12:41:21;100384.22;;;29.67;100.00
9750;BME280;4914;43.218;27.908;2022-08-06T12:43:48;100370.31;;;30.02;99.12
9750;BME280;4914;43.218;27.908;2022-08-06T12:46:16;100377.25;;;30.09;98.31
9750;BME280;4914;43.218;27.908;2022-08-06T12:48:48;100379.41;;;30.07;98.36
9750;BME280;4914;43.218;27.908;2022-08-06T12:51:15;100382.09;;;30.02;100.00
9750;BME280;4914;43.218;27.908;2022-08-06T12:53:47;100378.41;;;29.80;100.00
9750;BME280;4914;43.218;27.908;2022-08-06T12:56:14;100381.41;;;29.62;100.00
9750;BME280;4914;43.218;27.908;2022-08-06T12:58:41;100372.13;;;29.96;98.94
9750;BME280;4914;43.218;27.908;2022-08-06T13:01:13;100377.69;;;30.01;98.51
9750;BME280;4914;43.218;27.908;2022-08-06T13:03:43;100380.22;;;30.08;100.00
9750;BME280;4914;43.218;27.908;2022-08-06T13:06:13;100369.78;;;30.05;100.00
9750;BME280;4914;43.218;27.908;2022-08-06T13:08:41;100368.53;;;29.79;99.01
9750;BME280;4914;43.218;27.908;2022-08-06T13:11:08;100366.53;;;30.08;100.00
9750;BME280;4914;43.218;27.908;2022-08-06T13:13:37;100358.97;;;30.37;99.70
9750;BME280;4914;43.218;27.908;2022-08-06T13:16:06;100360.47;;;30.44;100.00
9750;BME280;4914;43.218;27.908;2022-08-06T13:18:33;100353.94;;;30.28;100.00